• Join FlightAware (Why Join?)
  • Login
  • US Flag GB Flag 
14:52 EDT


 

Airport Tracker/Info


-or-


 

Live Flight TrackerFlight Track Log ✈ SKW6492 ✈ 24-Oct-2013 ✈ KDEN - KCOD

Flight Track Log - Related Links

Times and Time Zones

All times are in EDT time to prevent confusion due to time zone crossing. See the SKW6492 flight status page for this flight to view local times or setup timezone preferences in your user account.

Time Position Orientation Groundspeed Altitude Reporting Facility
EDT Latitude Longitude Course Direction KTS MPH feet Rate Location/Type
21:29 39.9367 -104.6806 16° North 176 203 7,600  Level Denver Center
21:30 40.0069 -104.6683 North 246 283 9,300 1,860 Climbing Denver Center
21:31 40.2245 -104.9849 346° North  Level Estimated
21:31 40.0867 -104.6644 North 297 342 11,500  Level Denver Center
21:32 40.3150 -105.0634 348° North  Level Estimated
21:32 40.1708 -104.6867 349° North 294 338 14,200  Level Denver Center
21:33 40.4055 -105.1421 346° North  Level Estimated
21:33 40.2547 -104.7086 349° North 306 352 16,100  Level Denver Center
21:34 40.5101 -105.1035 16° North  Level FlightAware Approximate
21:34 40.3531 -104.7361 348° North 330 380 18,000  Level Denver Center
21:35 40.4481 -104.7608 349° North 348 400 19,800 1,620 Climbing Denver Center
21:36 40.5478 -104.7872 349° North 362 417 21,400 1,500 Climbing Denver Center
21:37 40.6533 -104.8181 348° North 363 418 22,900 1,200 Climbing Denver Center
21:38 40.7583 -104.8417 350° North 365 420 24,000 1,080 Climbing Denver Center
21:39 40.8625 -104.8875 342° North 388 447 25,200 1,140 Climbing Denver Center
21:40 40.9658 -104.9358 341° North 395 455 26,400 1,140 Climbing Denver Center
21:41 41.0828 -104.9961 339° North 402 463 27,600 960 Climbing Denver Center
21:42 41.1839 -105.0450 340° North 404 465 28,400 840 Climbing Denver Center
21:43 41.3042 -105.1047 340° North 412 474 29,400 720 Climbing Denver Center
21:44 41.3922 -105.1928 323° Northwest 418 481 30,000 600 Climbing Denver Center
21:45 41.4919 -105.3069 319° Northwest 421 484 30,700 660 Climbing Denver Center
21:46 41.5778 -105.4044 320° Northwest 422 486 31,400 600 Climbing Denver Center
21:47 41.6781 -105.5222 319° Northwest 427 491 32,000 240 Climbing Denver Center
21:48 41.7656 -105.6231 319° Northwest 432 497 32,000  Level Denver Center
21:49 41.8553 -105.7267 319° Northwest 441 507 32,000  Level Denver Center
21:50 41.9586 -105.8492 319° Northwest 443 510 32,000  Level Denver Center
21:51 42.0494 -105.9531 320° Northwest 444 511 32,000  Level Denver Center
21:52 42.1508 -106.0744 318° Northwest 439 505 32,000  Level Denver Center
21:53 42.2394 -106.1789 319° Northwest 439 505 32,000  Level Denver Center
21:54 42.3422 -106.3008 319° Northwest 441 507 32,000  Level Denver Center
21:55 42.4308 -106.4058 319° Northwest 441 507 32,000  Level Denver Center
21:57 42.5336 -106.5286 319° Northwest 440 506 32,000  Level Denver Center
21:58 42.6211 -106.6339 318° Northwest 442 509 32,000  Level Denver Center
21:59 42.7231 -106.7558 319° Northwest 438 504 32,000  Level Denver Center
22:00 42.8081 -106.8614 318° Northwest 433 498 32,000  Level Denver Center
22:00 42.8792 -106.9508 317° Northwest 435 501 32,000  Level Salt Lake Center
22:01 42.9697 -107.0622 318° Northwest 435 501 32,000  Level Salt Lake Center
22:02 43.0611 -107.1689 320° Northwest 434 499 32,000  Level Salt Lake Center
22:03 43.1508 -107.2781 318° Northwest 432 497 32,000  Level Salt Lake Center
22:04 43.2400 -107.3889 318° Northwest 433 498 32,000  Level Salt Lake Center
22:05 43.3300 -107.5022 318° Northwest 438 504 32,000  Level Salt Lake Center
22:07 43.4194 -107.6164 317° Northwest 439 505 32,000 -180 Level Salt Lake Center
22:08 43.5081 -107.7272 318° Northwest 433 498 31,700 -1,620 Descending Salt Lake Center
22:09 43.6228 -107.8547 321° Northwest 440 506 28,800 -2,640 Descending Salt Lake Center
22:10 43.7125 -107.9522 322° Northwest 417 480 26,300 -2,460 Descending Salt Lake Center
22:11 43.7978 -108.0450 322° Northwest 394 453 23,800 -2,520 Descending Salt Lake Center
22:12 43.8783 -108.1353 321° Northwest 377 434 21,200 -2,400 Descending Salt Lake Center
22:13 43.9556 -108.2219 321° Northwest 363 418 18,900 -1,920 Descending Salt Lake Center
22:14 44.0272 -108.3019 321° Northwest 348 400 17,300 -1,560 Descending Salt Lake Center
22:15 44.0933 -108.3764 321° Northwest 331 381 15,800 -1,500 Descending Salt Lake Center
22:16 44.1536 -108.4439 321° Northwest 308 354 14,300 -1,620 Descending Salt Lake Center
22:17 44.2217 -108.5200 321° Northwest 283 326 12,500 -1,620 Descending Salt Lake Center
22:18 44.2764 -108.5806 322° Northwest 268 308 11,000 -1,500 Descending Salt Lake Center
22:19 44.3306 -108.6425 321° Northwest 259 298 9,500 -1,020 Descending Salt Lake Center
22:20 44.3853 -108.7028 322° Northwest 254 292 9,000 -300 Descending Salt Lake Center
22:21 44.4353 -108.7608 320° Northwest 247 284 9,000 -300 Level Salt Lake Center
22:22 44.4806 -108.8119 321° Northwest 232 267 8,500 -780 Descending Salt Lake Center
22:23 44.5256 -108.8633 321° Northwest 219 252 7,400 -900 Descending Salt Lake Center
22:24 44.5706 -108.9194 318° Northwest 216 249 6,700 -840 Descending Salt Lake Center
22:25 44.5461 -108.9814 241° Southwest 169 194 5,700 -660 Descending Salt Lake Center
22:26 44.5231 -109.0211 231° Southwest 160 184 5,400 -300 Descending Salt Lake Center